SBOSBO KGS / LGKO
Speedbird OnlineSpeedbird Online KGS / LGKO

Kos Airport
01:28 4°C

Location Kos, Greece
Latitude: 36.79330062866211
Longitude: 27.091699600219727
Web Wikipedia
Altitude 126 Meter / 412 Feet
Distance 2,676 KM / 1,663 Miles
from London.
Time Zone UTC +2 hours (Europe/Athens)
Codes IATA: KGS
ICAO: LGKO
Currency £1 equals EUR 1.13
Runways
RunwayLength (m)Surface
142390Asphalt
322390Asphalt
Radio
TypeDescriptionFrequency
A/GIPPOKRATIS RDO563.7
APPAPP119.95
ATISATIS126.95
TWRIPPOKRATIS TWR121.05
Live ATC
METAR LGKO 081420Z /////KT 9999 SCT018 07/M04 Q1026
TAF TAF LGKO 081100Z 0812/0912 01016KT 9999 FEW018 SCT020 TEMPO 0812/0818 02016G26KT
Weather As Of 09 Feb 2023 01:28
Description Scattered clouds
Wind 36 km/h from North (10°)
Cloud Cover 40%
Precipitation Rain: none, Snow: none
Sunrise 07:07
Sunset 17:44



Support Speedbird Online

© 2017-2023 Speedbird Online